Time;durP1;ratioP1;P1;durP2;ratioP2;P2;SDS_P1;SDS_P2;PMS_P1;PMS_P2;Temp;Humidity;BMP_temperature;BMP_pressure;BME280_temperature;BME280_humidity;BME280_pressure;Samples;Min_cycle;Max_cycle;Signal;HPM_P1;HPM_P2
2022/03/21 00:00:14;;;;;;;61.75;33.66;;;;;;;-1.22;49.97;102700.47;456973;116;922455;-67
2022/03/21 00:01:20;;;;;;;57.66;35.15;;;;;;;-1.19;49.95;102694.92;457009;114;922652;-68
2022/03/21 00:02:24;;;;;;;60.96;33.59;;;;;;;-1.16;49.98;102696.58;456966;116;922563;-69
2022/03/21 00:03:29;;;;;;;70.48;35.95;;;;;;;-1.14;49.92;102700.01;457079;116;923034;-70
2022/03/21 00:04:32;;;;;;;63.90;36.04;;;;;;;-1.10;49.88;102696.23;457033;116;923036;-70
2022/03/21 00:05:36;;;;;;;64.73;36.73;;;;;;;-1.08;49.88;102694.30;457106;116;922445;-68
2022/03/21 00:06:40;;;;;;;64.02;36.43;;;;;;;-1.07;49.77;102696.04;457021;114;922547;-69
2022/03/21 00:07:44;;;;;;;63.11;36.25;;;;;;;-1.07;49.78;102699.58;457044;116;922524;-70
2022/03/21 00:08:47;;;;;;;63.46;37.29;;;;;;;-1.06;49.73;102700.45;457054;115;923025;-69
2022/03/21 00:09:50;;;;;;;66.71;35.86;;;;;;;-1.04;49.73;102701.20;457123;116;922585;-69
2022/03/21 00:10:55;;;;;;;63.22;35.96;;;;;;;-1.05;49.74;102700.37;457105;116;922549;-69
2022/03/21 00:11:59;;;;;;;64.55;35.03;;;;;;;-1.05;49.62;102691.47;456981;116;922489;-71
2022/03/21 00:13:03;;;;;;;69.10;35.00;;;;;;;-1.08;49.58;102702.34;456763;116;922868;-69
2022/03/21 00:14:06;;;;;;;67.18;36.61;;;;;;;-1.10;49.60;102696.23;456552;116;922509;-69
2022/03/21 00:15:10;;;;;;;65.08;35.17;;;;;;;-1.14;49.64;102697.33;457131;116;922514;-68
2022/03/21 00:16:16;;;;;;;62.41;33.55;;;;;;;-1.18;49.58;102696.66;456967;114;923160;-69
2022/03/21 00:17:19;;;;;;;52.96;31.73;;;;;;;-1.21;49.62;102691.46;457098;116;923092;-71
2022/03/21 00:18:24;;;;;;;46.84;29.84;;;;;;;-1.24;49.66;102699.67;457079;116;930579;-71
2022/03/21 00:19:27;;;;;;;50.52;30.79;;;;;;;-1.24;49.75;102696.14;457054;115;922656;-70
2022/03/21 00:20:32;;;;;;;47.41;29.36;;;;;;;-1.24;49.84;102696.14;457136;115;922699;-69
2022/03/21 00:21:36;;;;;;;43.67;28.15;;;;;;;-1.24;49.92;102686.30;456911;116;925638;-69
2022/03/21 00:22:39;;;;;;;45.35;28.25;;;;;;;-1.22;49.92;102687.09;457118;116;922633;-69
2022/03/21 00:23:43;;;;;;;46.98;28.83;;;;;;;-1.22;49.93;102687.09;457063;116;922420;-69
2022/03/21 00:24:46;;;;;;;46.17;28.32;;;;;;;-1.21;49.96;102677.25;457069;116;930808;-69
2022/03/21 00:25:50;;;;;;;56.13;30.80;;;;;;;-1.22;49.89;102672.84;457128;115;923348;-70
2022/03/21 00:26:53;;;;;;;46.86;27.95;;;;;;;-1.23;49.84;102674.65;456666;116;922644;-68
2022/03/21 00:27:58;;;;;;;54.64;30.39;;;;;;;-1.27;49.83;102671.27;456613;115;922564;-68
2022/03/21 00:29:02;;;;;;;40.78;28.10;;;;;;;-1.29;49.87;102677.67;457076;116;922537;-70
2022/03/21 00:30:06;;;;;;;46.36;28.60;;;;;;;-1.33;49.87;102674.31;456964;115;923088;-72
2022/03/21 00:31:10;;;;;;;48.71;29.60;;;;;;;-1.36;50.02;102673.61;456841;114;930391;-69
2022/03/21 00:32:13;;;;;;;53.64;29.32;;;;;;;-1.38;50.03;102673.69;456742;116;930465;-68
2022/03/21 00:33:17;;;;;;;51.15;29.63;;;;;;;-1.41;50.11;102673.87;457166;116;923247;-70
2022/03/21 00:34:21;;;;;;;47.45;29.57;;;;;;;-1.41;50.31;102673.87;457015;116;923054;-70
2022/03/21 00:35:24;;;;;;;53.89;28.69;;;;;;;-1.39;50.42;102669.31;457061;116;922574;-71
2022/03/21 00:36:28;;;;;;;46.38;29.51;;;;;;;-1.36;50.48;102677.15;457022;114;922814;-69
2022/03/21 00:37:35;;;;;;;50.84;30.70;;;;;;;-1.34;50.50;102669.91;453565;116;922772;-69
2022/03/21 00:38:39;;;;;;;51.30;30.49;;;;;;;-1.32;50.47;102672.47;456976;116;922564;-70
2022/03/21 00:39:43;;;;;;;51.18;32.04;;;;;;;-1.30;50.49;102678.61;449938;117;923136;-68
2022/03/21 00:40:47;;;;;;;53.68;33.03;;;;;;;-1.29;50.51;102673.19;450772;116;922707;-70
2022/03/21 00:41:51;;;;;;;50.54;31.52;;;;;;;-1.27;50.48;102668.59;456968;116;922604;-69
2022/03/21 00:42:54;;;;;;;50.00;30.72;;;;;;;-1.23;50.54;102668.42;457134;115;922726;-69
2022/03/21 00:43:59;;;;;;;49.80;30.33;;;;;;;-1.23;50.42;102671.11;457023;116;922833;-68
2022/03/21 00:45:11;;;;;;;44.29;30.72;;;;;;;-1.22;50.43;102660.32;456793;116;922584;-69
2022/03/21 00:46:14;;;;;;;48.93;31.50;;;;;;;-1.21;50.36;102656.67;448240;116;922622;-67
2022/03/21 00:47:18;;;;;;;48.47;30.92;;;;;;;-1.22;50.34;102648.75;457059;116;922613;-69
2022/03/21 00:48:22;;;;;;;53.57;32.77;;;;;;;-1.24;50.26;102643.48;457015;116;930370;-66
2022/03/21 00:49:26;;;;;;;51.94;30.38;;;;;;;-1.28;50.19;102641.94;457121;115;922775;-69
2022/03/21 00:50:29;;;;;;;57.03;34.71;;;;;;;-1.32;50.05;102640.36;457112;115;922624;-70
2022/03/21 00:51:32;;;;;;;54.46;34.45;;;;;;;-1.37;50.11;102643.31;457082;116;922680;-68
2022/03/21 00:52:47;;;;;;;62.71;34.02;;;;;;;-1.41;50.15;102632.88;457111;116;923084;-68
2022/03/21 00:53:50;;;;;;;61.06;34.89;;;;;;;-1.47;50.23;102631.41;456933;116;930175;-69
2022/03/21 00:54:53;;;;;;;48.68;30.47;;;;;;;-1.52;50.29;102628.14;457115;116;922634;-69
2022/03/21 00:55:57;;;;;;;47.62;30.57;;;;;;;-1.55;50.40;102635.48;457038;115;925274;-69
2022/03/21 00:57:00;;;;;;;47.86;29.82;;;;;;;-1.59;50.48;102629.42;457093;115;922536;-69
2022/03/21 00:58:04;;;;;;;46.88;28.26;;;;;;;-1.62;50.50;102639.45;456999;116;930411;-69
2022/03/21 00:59:08;;;;;;;43.91;29.25;;;;;;;-1.65;50.48;102634.28;456981;116;930344;-69
2022/03/21 01:00:14;;;;;;;41.32;28.18;;;;;;;-1.70;50.57;102634.52;457089;116;922836;-68
2022/03/21 01:01:17;;;;;;;55.16;31.37;;;;;;;-1.73;50.67;102629.35;456906;114;922553;-68
2022/03/21 01:02:21;;;;;;;46.60;28.66;;;;;;;-1.76;50.90;102625.02;457002;116;923212;-69
2022/03/21 01:03:25;;;;;;;45.75;28.74;;;;;;;-1.78;50.88;102631.42;457109;116;923380;-70
2022/03/21 01:04:28;;;;;;;48.56;30.39;;;;;;;-1.80;50.84;102626.15;457062;116;930459;-68
2022/03/21 01:05:33;;;;;;;48.43;29.51;;;;;;;-1.82;50.85;102627.20;456806;116;930422;-68
2022/03/21 01:06:36;;;;;;;42.72;27.84;;;;;;;-1.85;50.80;102627.35;457079;114;922618;-68
2022/03/21 01:07:40;;;;;;;44.77;28.30;;;;;;;-1.89;50.89;102621.33;457112;116;922594;-69
2022/03/21 01:08:44;;;;;;;42.94;27.97;;;;;;;-1.92;50.96;102618.80;456921;116;930336;-68
2022/03/21 01:09:47;;;;;;;43.51;27.32;;;;;;;-1.93;51.00;102621.58;456947;116;922981;-67
2022/03/21 01:10:51;;;;;;;41.01;26.78;;;;;;;-1.95;51.14;102618.12;457026;115;930524;-69
2022/03/21 01:11:54;;;;;;;42.91;27.16;;;;;;;-1.96;51.21;102611.05;457000;114;930459;-70
2022/03/21 01:12:57;;;;;;;40.12;27.01;;;;;;;-1.97;51.30;102612.85;457095;116;922680;-68
2022/03/21 01:14:01;;;;;;;43.39;26.75;;;;;;;-1.98;51.39;102610.25;457027;116;930549;-69
2022/03/21 01:15:06;;;;;;;38.61;25.24;;;;;;;-1.98;51.39;102613.79;457117;116;922564;-70
2022/03/21 01:16:09;;;;;;;39.98;25.06;;;;;;;-2.00;51.55;102605.02;456965;114;930755;-68
2022/03/21 01:17:13;;;;;;;38.59;24.65;;;;;;;-1.99;51.62;102604.08;457114;116;922865;-69
2022/03/21 01:18:17;;;;;;;31.55;23.64;;;;;;;-1.98;51.67;102607.58;457158;116;922980;-69
2022/03/21 01:19:20;;;;;;;41.91;26.39;;;;;;;-1.99;51.65;102609.42;457092;116;930667;-66
2022/03/21 01:20:25;;;;;;;34.61;24.74;;;;;;;-1.98;51.71;102615.59;457153;115;922641;-70
2022/03/21 01:21:30;;;;;;;36.21;24.18;;;;;;;-1.99;51.71;102600.53;456893;116;930816;-69
2022/03/21 01:22:33;;;;;;;35.33;23.88;;;;;;;-1.99;51.68;102600.53;457052;115;922448;-68
2022/03/21 01:23:36;;;;;;;34.76;24.34;;;;;;;-1.99;51.75;102600.53;457074;116;922874;-69
2022/03/21 01:24:40;;;;;;;34.24;23.92;;;;;;;-1.99;51.81;102595.19;457063;116;922508;-68
2022/03/21 01:25:44;;;;;;;40.23;24.81;;;;;;;-2.00;51.79;102598.80;457080;116;922881;-69
2022/03/21 01:26:47;;;;;;;33.79;23.77;;;;;;;-2.01;51.79;102605.09;456933;116;922745;-70
2022/03/21 01:27:51;;;;;;;41.49;24.63;;;;;;;-2.02;51.85;102608.70;457097;116;922593;-68
2022/03/21 01:28:56;;;;;;;36.10;24.78;;;;;;;-2.05;51.94;102603.55;457048;116;923952;-68
2022/03/21 01:30:00;;;;;;;35.11;23.98;;;;;;;-2.06;51.88;102599.14;456950;115;930617;-70
2022/03/21 01:31:04;;;;;;;37.32;25.16;;;;;;;-2.08;52.00;102604.56;456104;116;922703;-69
2022/03/21 01:32:07;;;;;;;34.42;23.22;;;;;;;-2.09;52.03;102593.97;454405;116;922659;-69
2022/03/21 01:33:11;;;;;;;37.79;24.76;;;;;;;-2.11;52.06;102599.40;454283;116;930485;-70
2022/03/21 01:34:15;;;;;;;33.24;23.55;;;;;;;-2.12;52.08;102595.86;454390;116;922475;-68
2022/03/21 01:35:19;;;;;;;33.66;22.95;;;;;;;-2.13;52.08;102594.12;454322;116;922586;-69
2022/03/21 01:36:22;;;;;;;26.87;21.11;;;;;;;-2.13;52.11;102593.27;454473;116;925822;-69
2022/03/21 01:37:26;;;;;;;25.77;20.69;;;;;;;-2.14;52.09;102592.39;454380;116;930508;-68
2022/03/21 01:38:29;;;;;;;27.92;21.23;;;;;;;-2.15;52.07;102590.66;454249;116;922649;-69
2022/03/21 01:39:33;;;;;;;25.70;19.92;;;;;;;-2.15;52.13;102596.01;454378;116;922592;-67
2022/03/21 01:40:36;;;;;;;29.74;20.86;;;;;;;-2.13;52.18;102598.60;454421;116;922910;-68
2022/03/21 01:41:40;;;;;;;27.46;19.76;;;;;;;-2.13;52.16;102594.12;454420;116;922563;-69
2022/03/21 01:42:46;;;;;;;21.85;18.12;;;;;;;-2.12;52.19;102593.19;454396;116;923079;-70
2022/03/21 01:44:02;;;;;;;22.44;18.49;;;;;;;-2.11;52.15;102586.90;454282;116;922645;-69
2022/03/21 01:45:12;;;;;;;24.03;18.52;;;;;;;-1.98;52.21;102588.87;481892;107;922546;-67
2022/03/21 01:46:16;;;;;;;22.69;17.02;;;;;;;-2.09;52.13;102588.63;473024;111;922440;-68
2022/03/21 01:47:20;;;;;;;22.65;18.07;;;;;;;-2.07;52.15;102587.58;474383;111;922597;-68
2022/03/21 01:48:24;;;;;;;18.26;16.28;;;;;;;-2.05;52.13;102587.50;474621;111;930537;-68
2022/03/21 01:49:28;;;;;;;18.89;16.21;;;;;;;-2.05;52.10;102588.38;474542;111;923112;-68
2022/03/21 01:50:31;;;;;;;20.81;16.46;;;;;;;-2.05;52.12;102593.72;474185;111;922539;-67
2022/03/21 01:51:37;;;;;;;21.97;15.76;;;;;;;-2.03;52.09;102590.94;472982;111;922524;-68
2022/03/21 01:52:44;;;;;;;22.52;16.24;;;;;;;-2.03;52.09;102589.13;471474;111;923503;-67
2022/03/21 01:56:32;;;;;;;15.52;13.15;;;;;;;-2.02;52.08;102584.65;464879;114;922733;-67
2022/03/21 01:57:35;;;;;;;14.26;12.72;;;;;;;-2.04;52.05;102584.72;464536;111;922870;-66
2022/03/21 01:58:39;;;;;;;15.29;12.76;;;;;;;-2.04;52.00;102589.23;473156;111;922576;-68
2022/03/21 01:59:43;;;;;;;13.68;11.28;;;;;;;-2.06;51.93;102581.30;474857;111;922564;-67
2022/03/21 02:00:46;;;;;;;12.13;11.05;;;;;;;-2.09;51.86;102583.28;472366;111;923003;-69
2022/03/21 02:01:50;;;;;;;12.75;11.58;;;;;;;-2.13;51.81;102583.44;472194;111;930435;-69
2022/03/21 02:02:55;;;;;;;12.66;11.54;;;;;;;-2.16;51.78;102578.28;471685;111;922555;-68
2022/03/21 02:03:59;;;;;;;12.04;10.91;;;;;;;-2.19;51.89;102583.77;471721;111;922966;-70
2022/03/21 02:05:03;;;;;;;13.04;10.91;;;;;;;-2.21;51.82;102591.03;462477;113;922503;-67
2022/03/21 02:06:06;;;;;;;12.15;10.99;;;;;;;-2.25;51.78;102576.09;461894;113;930847;-68
2022/03/21 02:07:10;;;;;;;11.12;10.07;;;;;;;-2.25;51.81;102584.10;454835;114;922511;-70
2022/03/21 02:08:15;;;;;;;12.16;11.03;;;;;;;-2.26;51.84;102584.20;459497;113;930410;-70
2022/03/21 02:09:19;;;;;;;11.02;9.91;;;;;;;-2.26;51.84;102581.54;456377;116;922535;-69
2022/03/21 02:10:22;;;;;;;12.19;10.46;;;;;;;-2.27;51.90;102585.15;460326;114;922679;-68
2022/03/21 02:11:26;;;;;;;10.08;9.14;;;;;;;-2.28;51.91;102578.94;456485;116;922650;-67
2022/03/21 02:12:31;;;;;;;11.68;10.17;;;;;;;-2.29;51.93;102582.55;452677;116;931079;-69
2022/03/21 02:13:35;;;;;;;10.39;9.40;;;;;;;-2.30;51.94;102578.15;455756;116;922573;-69
2022/03/21 02:14:40;;;;;;;10.84;9.81;;;;;;;-2.32;51.95;102568.51;460060;114;922531;-69
2022/03/21 02:15:43;;;;;;;13.05;10.45;;;;;;;-2.33;52.02;102570.31;458759;114;923157;-69
2022/03/21 02:16:47;;;;;;;10.89;9.92;;;;;;;-2.34;52.05;102571.25;458086;114;922574;-68
2022/03/21 02:17:54;;;;;;;11.21;10.11;;;;;;;-2.34;52.10;102573.92;458412;114;930129;-68
2022/03/21 02:19:19;;;;;;;10.57;9.51;;;;;;;-2.23;52.11;102571.53;473571;110;947134;-68
2022/03/21 02:20:27;;;;;;;10.23;9.34;;;;;;;-2.32;52.14;102565.84;463969;113;922632;-68
2022/03/21 02:21:51;;;;;;;11.15;10.02;;;;;;;-2.31;52.17;102567.53;463932;114;922911;-70
2022/03/21 02:23:01;;;;;;;11.04;9.89;;;;;;;-2.30;52.19;102563.92;464973;114;922608;-68
2022/03/21 02:24:11;;;;;;;10.37;9.43;;;;;;;-2.29;52.24;102561.18;462152;114;922950;-68
2022/03/21 02:25:34;;;;;;;13.56;9.51;;;;;;;-2.28;52.25;102556.70;461126;114;930536;-68
2022/03/21 02:26:38;;;;;;;12.09;10.23;;;;;;;-2.27;52.27;102555.77;463103;114;922920;-68
2022/03/21 02:27:43;;;;;;;12.59;9.77;;;;;;;-2.25;52.36;102561.86;447097;117;923055;-68
2022/03/21 02:28:48;;;;;;;11.11;10.18;;;;;;;-2.24;52.36;102564.45;463541;114;922856;-68
2022/03/21 02:29:53;;;;;;;10.12;9.04;;;;;;;-2.22;52.30;102559.04;463642;114;922558;-68
2022/03/21 02:30:58;;;;;;;10.47;9.27;;;;;;;-2.22;52.31;102556.36;463984;114;930499;-69
2022/03/21 02:32:03;;;;;;;10.17;9.26;;;;;;;-2.22;52.22;102551.89;463747;114;922663;-68
2022/03/21 02:33:07;;;;;;;11.36;10.24;;;;;;;-2.21;52.24;102558.09;462629;114;922474;-69
2022/03/21 02:34:11;;;;;;;10.74;9.68;;;;;;;-2.20;52.34;102559.80;462615;114;922610;-67
2022/03/21 02:35:16;;;;;;;9.86;8.95;;;;;;;-2.20;52.22;102552.64;463829;114;922531;-68
2022/03/21 02:36:21;;;;;;;10.26;9.33;;;;;;;-2.18;52.22;102553.44;464467;114;922606;-70
2022/03/21 02:37:25;;;;;;;10.47;9.47;;;;;;;-2.14;52.22;102548.77;463946;114;922670;-68
2022/03/21 02:38:29;;;;;;;9.85;8.89;;;;;;;-2.13;52.29;102545.16;463821;114;922782;-69
2022/03/21 02:39:35;;;;;;;10.85;9.29;;;;;;;-2.12;52.21;102547.75;462282;114;930544;-68
2022/03/21 02:40:40;;;;;;;10.95;9.77;;;;;;;-2.11;52.23;102536.13;463437;114;922922;-67
2022/03/21 02:41:44;;;;;;;11.04;10.04;;;;;;;-2.06;52.21;102538.53;463299;114;923402;-66
2022/03/21 02:42:47;;;;;;;10.53;9.53;;;;;;;-2.03;52.16;102542.83;463696;114;930514;-68
2022/03/21 02:43:57;;;;;;;10.48;9.42;;;;;;;-2.00;52.11;102542.67;463042;114;922845;-67
2022/03/21 02:45:00;;;;;;;10.11;8.50;;;;;;;-1.99;52.05;102537.25;464753;114;922669;-67
2022/03/21 02:46:07;;;;;;;10.59;9.56;;;;;;;-1.99;52.02;102537.25;464841;114;923276;-68
2022/03/21 02:47:11;;;;;;;11.06;9.92;;;;;;;-1.99;52.01;102531.91;463126;114;930588;-68
2022/03/21 02:48:14;;;;;;;10.23;9.07;;;;;;;-1.99;51.99;102539.06;462475;114;922646;-67
2022/03/21 02:49:18;;;;;;;11.74;10.46;;;;;;;-2.00;52.02;102532.84;464890;114;923218;-69
2022/03/21 02:50:36;;;;;;;10.96;9.93;;;;;;;-2.00;51.99;102535.52;465045;114;930343;-67
2022/03/21 02:51:41;;;;;;;10.09;9.11;;;;;;;-1.99;52.00;102531.04;463718;114;922685;-67
2022/03/21 02:52:48;;;;;;;10.32;9.43;;;;;;;-2.02;52.00;102529.39;463943;114;922561;-68
2022/03/21 02:53:52;;;;;;;10.59;9.64;;;;;;;-2.02;52.03;102537.41;461556;114;922571;-69
2022/03/21 02:54:56;;;;;;;14.07;9.46;;;;;;;-2.03;52.06;102534.81;464613;113;922497;-67
2022/03/21 02:55:59;;;;;;;10.51;9.61;;;;;;;-2.05;52.06;102537.59;464067;114;923026;-70
2022/03/21 02:57:03;;;;;;;10.88;9.84;;;;;;;-2.07;52.10;102531.45;463134;114;922589;-69
2022/03/21 02:58:06;;;;;;;10.18;9.17;;;;;;;-2.06;52.12;102534.99;463755;114;922538;-67
2022/03/21 02:59:09;;;;;;;10.25;9.17;;;;;;;-2.04;52.21;102536.61;463716;114;922674;-67
2022/03/21 03:00:15;;;;;;;11.01;9.91;;;;;;;-2.02;52.23;102532.06;464428;114;922727;-69
2022/03/21 03:01:18;;;;;;;10.03;9.06;;;;;;;-1.99;52.22;102536.39;463340;113;922484;-68
2022/03/21 03:02:22;;;;;;;9.79;8.88;;;;;;;-1.97;52.32;102539.81;462844;114;922602;-67
2022/03/21 03:03:26;;;;;;;10.51;9.55;;;;;;;-1.96;52.13;102542.41;463278;114;930592;-70
2022/03/21 03:04:29;;;;;;;10.81;9.79;;;;;;;-1.96;52.16;102539.73;463906;114;930621;-68
2022/03/21 03:05:33;;;;;;;10.43;9.24;;;;;;;-1.95;52.07;102543.27;463404;113;930503;-67
2022/03/21 03:06:39;;;;;;;10.81;9.78;;;;;;;-1.96;52.07;102542.41;463789;114;930532;-69
2022/03/21 03:07:41;;;;;;;10.17;9.27;;;;;;;-1.97;52.12;102538.00;464930;114;922989;-67
2022/03/21 03:08:44;;;;;;;10.69;9.73;;;;;;;-1.96;52.16;102541.55;464643;114;922576;-69
2022/03/21 03:09:48;;;;;;;10.45;9.49;;;;;;;-1.95;52.14;102543.27;464947;114;922598;-69
2022/03/21 03:10:51;;;;;;;11.03;9.83;;;;;;;-1.95;52.14;102541.47;463931;113;922552;-68
2022/03/21 03:11:54;;;;;;;9.51;8.68;;;;;;;-1.95;52.11;102540.60;462241;114;922707;-69
2022/03/21 03:12:58;;;;;;;9.73;8.85;;;;;;;-1.96;52.15;102538.87;465179;114;922610;-70
2022/03/21 03:14:01;;;;;;;9.71;8.86;;;;;;;-1.96;52.18;102539.73;465293;114;922631;-67
2022/03/21 03:15:06;;;;;;;9.88;8.97;;;;;;;-1.95;52.31;102533.45;465318;114;922884;-68
2022/03/21 03:16:11;;;;;;;11.12;8.89;;;;;;;-1.94;52.24;102539.66;463600;114;922715;-66
2022/03/21 03:17:14;;;;;;;10.43;9.43;;;;;;;-1.94;52.29;102537.84;462482;113;922869;-67
2022/03/21 03:18:18;;;;;;;10.30;9.26;;;;;;;-1.91;52.34;102534.13;464053;114;922795;-69
2022/03/21 03:19:21;;;;;;;11.04;9.99;;;;;;;-1.90;52.38;102528.70;457112;114;922548;-69
2022/03/21 03:20:25;;;;;;;13.91;9.69;;;;;;;-1.89;52.40;102532.23;456601;114;922567;-67
2022/03/21 03:21:37;;;;;;;10.93;9.79;;;;;;;-1.87;52.39;102530.31;455189;114;930389;-66
2022/03/21 03:22:41;;;;;;;11.27;10.21;;;;;;;-1.87;52.35;102531.19;450190;116;922956;-68
2022/03/21 03:23:45;;;;;;;11.42;10.25;;;;;;;-1.85;52.39;102539.13;450791;114;922604;-68
2022/03/21 03:24:50;;;;;;;10.45;9.42;;;;;;;-1.83;52.36;102531.89;461396;114;930166;-70
2022/03/21 03:25:59;;;;;;;10.72;9.73;;;;;;;-1.81;52.35;102535.31;461174;114;922638;-68
2022/03/21 03:27:03;;;;;;;11.37;10.33;;;;;;;-1.80;52.40;102537.05;462651;114;922897;-69
2022/03/21 03:28:06;;;;;;;10.86;9.78;;;;;;;-1.79;52.33;102533.43;457322;114;922920;-70
2022/03/21 03:29:10;;;;;;;11.49;9.99;;;;;;;-1.78;52.28;102535.16;456738;114;922540;-69
2022/03/21 03:30:15;;;;;;;12.58;10.92;;;;;;;-1.79;52.31;102534.30;461841;114;922641;-68
2022/03/21 03:31:19;;;;;;;10.58;9.64;;;;;;;-1.77;52.35;102534.22;461086;114;922417;-66
2022/03/21 03:32:22;;;;;;;10.61;9.62;;;;;;;-1.74;52.33;102534.89;458081;114;922431;-67
2022/03/21 03:33:26;;;;;;;11.34;9.19;;;;;;;-1.72;52.33;102538.35;460265;114;922976;-69
2022/03/21 03:34:33;;;;;;;11.37;10.23;;;;;;;-1.71;52.27;102533.88;457728;114;922596;-70
2022/03/21 03:35:37;;;;;;;11.44;10.37;;;;;;;-1.70;52.23;102538.23;455680;114;922774;-68
2022/03/21 03:36:40;;;;;;;10.62;9.54;;;;;;;-1.70;52.21;102538.23;456900;114;922303;-69
2022/03/21 03:37:44;;;;;;;10.89;9.53;;;;;;;-1.71;52.24;102536.55;455233;114;922636;-68
2022/03/21 03:38:48;;;;;;;11.99;9.91;;;;;;;-1.71;52.27;102541.89;455816;114;922956;-69
2022/03/21 03:39:51;;;;;;;10.65;9.69;;;;;;;-1.71;52.32;102537.38;462300;114;922465;-68
2022/03/21 03:40:54;;;;;;;12.59;10.88;;;;;;;-1.71;52.37;102536.55;462662;114;922622;-70
2022/03/21 03:41:58;;;;;;;11.75;10.16;;;;;;;-1.72;52.40;102532.14;460152;114;930456;-69
2022/03/21 03:43:01;;;;;;;14.93;10.65;;;;;;;-1.71;52.50;102524.00;457047;114;922498;-69
2022/03/21 03:44:05;;;;;;;10.96;9.96;;;;;;;-1.70;52.47;102532.89;458123;114;923103;-68
2022/03/21 03:45:09;;;;;;;11.01;9.98;;;;;;;-1.70;52.47;102528.41;457636;114;930137;-68
2022/03/21 03:46:14;;;;;;;11.43;10.19;;;;;;;-1.68;52.52;102522.98;457343;114;922935;-69
2022/03/21 03:47:17;;;;;;;12.48;11.27;;;;;;;-1.66;52.61;102529.12;462150;114;922731;-66
2022/03/21 03:48:21;;;;;;;12.03;10.83;;;;;;;-1.64;52.62;102526.33;462409;114;930262;-68
2022/03/21 03:49:24;;;;;;;11.68;10.63;;;;;;;-1.62;52.58;102527.98;459090;114;922990;-69
2022/03/21 03:50:27;;;;;;;18.86;11.86;;;;;;;-1.63;52.48;102520.90;456407;114;922513;-67
2022/03/21 03:51:31;;;;;;;15.16;13.23;;;;;;;-1.63;52.48;102522.71;455816;114;922623;-66
2022/03/21 03:52:34;;;;;;;13.84;12.48;;;;;;;-1.64;52.44;102524.52;456216;114;930374;-68
2022/03/21 03:53:38;;;;;;;14.95;13.26;;;;;;;-1.64;52.41;102535.22;456348;114;930417;-66
2022/03/21 03:54:42;;;;;;;15.39;13.84;;;;;;;-1.64;52.42;102537.03;455265;114;930332;-68
2022/03/21 03:55:45;;;;;;;15.63;13.46;;;;;;;-1.66;52.38;102523.77;455402;114;922763;-67
2022/03/21 03:56:49;;;;;;;16.94;13.27;;;;;;;-1.67;52.40;102522.03;456809;114;922926;-68
2022/03/21 03:57:53;;;;;;;16.33;12.60;;;;;;;-1.69;52.40;102519.44;459453;114;930492;-68
2022/03/21 03:58:56;;;;;;;14.65;12.14;;;;;;;-1.67;52.49;102523.84;456706;114;930507;-67
2022/03/21 04:00:00;;;;;;;23.58;12.77;;;;;;;-1.68;52.53;102514.95;457285;114;923008;-67
2022/03/21 04:01:05;;;;;;;13.99;12.56;;;;;;;-1.65;52.61;102525.47;456941;114;922842;-66
2022/03/21 04:02:10;;;;;;;17.30;13.84;;;;;;;-1.62;52.73;102524.44;460998;114;922658;-68
2022/03/21 04:04:35;;;;;;;15.99;13.59;;;;;;;-1.56;52.87;102514.25;462291;114;922887;-68
2022/03/21 04:05:38;;;;;;;15.52;13.93;;;;;;;-1.53;52.83;102519.41;462065;114;922434;-68
2022/03/21 04:06:42;;;;;;;16.22;14.34;;;;;;;-1.51;52.83;102517.52;462492;114;922831;-67
2022/03/21 04:07:45;;;;;;;16.03;14.56;;;;;;;-1.48;52.86;102516.45;462207;114;922498;-68
2022/03/21 04:08:50;;;;;;;16.71;14.91;;;;;;;-1.47;52.84;102511.03;462498;114;923552;-66
2022/03/21 04:09:54;;;;;;;16.81;14.78;;;;;;;-1.44;52.86;102516.22;462344;114;930626;-68
2022/03/21 04:10:57;;;;;;;18.07;16.32;;;;;;;-1.41;52.88;102516.02;462398;114;922458;-68
2022/03/21 04:12:02;;;;;;;18.17;16.05;;;;;;;-1.37;52.88;102514.02;462429;114;922799;-67
2022/03/21 04:13:06;;;;;;;18.76;16.88;;;;;;;-1.35;52.80;102512.98;457838;114;930551;-68
2022/03/21 04:14:10;;;;;;;19.34;17.31;;;;;;;-1.32;52.78;102517.27;442400;117;922630;-68
2022/03/21 04:15:18;;;;;;;18.91;16.91;;;;;;;-1.30;52.70;102515.38;443236;114;922717;-66
2022/03/21 04:16:21;;;;;;;18.89;16.57;;;;;;;-1.29;52.66;102517.97;458625;114;923028;-67
2022/03/21 04:17:24;;;;;;;21.99;16.36;;;;;;;-1.28;52.53;102517.03;462386;114;922704;-66
2022/03/21 04:18:28;;;;;;;25.01;16.99;;;;;;;-1.29;52.49;102511.76;462324;114;930578;-69
2022/03/21 04:19:33;;;;;;;19.71;17.58;;;;;;;-1.29;52.49;102511.76;458225;114;931072;-68
2022/03/21 04:20:37;;;;;;;21.36;18.49;;;;;;;-1.29;52.42;102509.95;461184;114;922695;-69
2022/03/21 04:21:40;;;;;;;26.08;18.01;;;;;;;-1.31;52.42;102510.97;460466;114;922560;-68
2022/03/21 04:22:44;;;;;;;25.61;19.74;;;;;;;-1.32;52.35;102512.78;460484;114;922556;-69
2022/03/21 04:23:47;;;;;;;30.89;19.93;;;;;;;-1.33;52.34;102515.58;460451;114;922573;-70
2022/03/21 04:24:50;;;;;;;29.72;20.92;;;;;;;-1.35;52.32;102512.98;460479;114;922495;-70
2022/03/21 04:25:54;;;;;;;28.15;20.16;;;;;;;-1.37;52.37;102514.02;460396;114;930467;-69
2022/03/21 04:26:57;;;;;;;30.06;21.42;;;;;;;-1.38;52.40;102512.31;460840;114;930320;-70
2022/03/21 04:28:09;;;;;;;29.46;23.70;;;;;;;-1.41;52.44;102518.70;461806;114;923033;-69
2022/03/21 04:29:13;;;;;;;35.86;25.04;;;;;;;-1.41;52.48;102518.70;461541;114;930543;-66
2022/03/21 04:30:17;;;;;;;36.72;26.04;;;;;;;-1.41;52.62;102509.80;460526;114;923145;-66
2022/03/21 04:31:20;;;;;;;32.89;26.01;;;;;;;-1.39;52.65;102522.16;461780;114;922484;-67
2022/03/21 04:32:24;;;;;;;39.13;26.35;;;;;;;-1.37;52.65;102514.02;461745;114;923153;-68
2022/03/21 04:33:27;;;;;;;37.39;26.95;;;;;;;-1.35;52.73;102517.47;460902;114;930586;-68
2022/03/21 04:34:31;;;;;;;39.98;25.90;;;;;;;-1.34;52.72;102517.39;460995;114;924024;-69
2022/03/21 04:35:35;;;;;;;35.48;25.41;;;;;;;-1.32;52.69;102518.14;461076;114;930424;-67
2022/03/21 04:36:40;;;;;;;28.15;23.10;;;;;;;-1.31;52.51;102519.00;461907;114;922519;-65
2022/03/21 04:37:43;;;;;;;30.52;24.46;;;;;;;-1.32;52.47;102511.92;461796;114;922670;-67
2022/03/21 04:38:47;;;;;;;24.76;21.15;;;;;;;-1.31;52.55;102513.66;461810;114;930451;-67
2022/03/21 04:39:50;;;;;;;25.16;20.84;;;;;;;-1.30;52.50;102510.89;461523;114;922506;-68
2022/03/21 04:40:53;;;;;;;24.36;20.82;;;;;;;-1.30;52.43;102510.03;461716;114;922528;-69
2022/03/21 04:41:58;;;;;;;24.34;19.66;;;;;;;-1.31;52.41;102509.16;461769;114;922580;-69
2022/03/21 04:43:01;;;;;;;25.62;19.06;;;;;;;-1.33;52.40;102503.06;461760;114;922635;-68
2022/03/21 04:44:05;;;;;;;21.34;17.52;;;;;;;-1.35;52.44;102504.95;460901;114;930510;-68
2022/03/21 04:45:09;;;;;;;22.67;17.59;;;;;;;-1.35;52.47;102506.77;461269;114;922581;-67
2022/03/21 04:46:13;;;;;;;18.28;16.62;;;;;;;-1.38;52.52;102505.13;460486;114;922618;-69
2022/03/21 04:47:17;;;;;;;19.09;17.32;;;;;;;-1.38;52.54;102498.94;460387;114;922515;-67
2022/03/21 04:48:21;;;;;;;21.14;17.62;;;;;;;-1.39;52.60;102500.75;460503;114;922605;-69
2022/03/21 04:49:24;;;;;;;19.42;17.46;;;;;;;-1.40;52.68;102503.50;461226;114;922585;-66
2022/03/21 04:50:28;;;;;;;18.46;16.26;;;;;;;-1.41;52.70;102502.64;461695;114;922510;-66
2022/03/21 04:51:31;;;;;;;17.60;15.92;;;;;;;-1.40;52.79;102500.83;460406;114;930828;-65
2022/03/21 04:52:35;;;;;;;23.44;17.49;;;;;;;-1.39;52.88;102500.75;460731;114;923087;-69
2022/03/21 04:53:38;;;;;;;19.91;17.55;;;;;;;-1.39;52.91;102500.75;461869;114;922602;-71
2022/03/21 04:54:42;;;;;;;22.20;18.41;;;;;;;-1.38;52.99;102504.29;461222;114;922800;-66